Pagrindinis puslapis
METAR-TAF:

METAR-TAF

Oro uostai :

Pskovas, Rusija

platuma: 57-47-06N, ilguma: 028-23-54E, Aukštis: 47 m

Dabartinis oras

Ataskaita buvo paskelbta 24 minutes, ne 09:00 UTC
Vėjas 16 kt iš Šiaurės/Šiaurės Rytų, svyruoja nuo Šiaurės/Šiaurės Vakarų ir Rytų/Šiaurės Rytų
Temperatūra 17°C
Drėgmė 32%
Slėgis 1021 hPa
Matomumas 10 km arba daugiau
nėra debesų žemiau 1500 m ir nėra kamuolinių lietaus debesų

METAR: ULOO 310900Z 02008MPS 340V060 CAVOK 17/M00 Q1021 R01/090070 NOSIG RMK QFE762

Laikas: 12:24 (09:24 UTC)

Prognozė

Ataskaita buvo paskelbta 1 valandą ir 29 minutes, ne 07:55 UTC
Prognozė galioja nuo 31 metu 09 UTC su 31 metu 18 UTC
Vėjas 16 kt iš Šiaurės/Šiaurės Rytų su gūsio iki 25 kt
Matomumas 10 km arba daugiau
Išsisklaidę debesys ne aukštis 4000 ft
Laikinai
nuo 31 metu 09 UTC su 31 metu 16 UTC
Vėjas 19 kt iš Šiaurės su gūsio iki 31 kt
Tapsmas
nuo 31 metu 16 UTC su 31 metu 18 UTC
Vėjas 10 kt iš Šiaurės/Šiaurės Rytų su gūsio iki 19 kt

TAF: ULOO 310755Z 3109/3118 03008G13MPS 9999 SCT040 TEMPO 3109/3116 01010G16MPS BECMG 3116/3118 02005G10MPS

Orai ataskaitas ir orų prognozės (METAR, TAF).

turimą stotys yra geltonos ir raudonos taškus žemėlapyje.

Perkelti pele per norėdami pamatyti stoties vardą.

Tada spustelėkite, norėdami matyti oro stebėjimo ir prognozės.

Norėdami pakeisti žemėlapį: spustelėkite ant žalios mygtukų su juodo kryžiaus žemyn,; žalią mygtuką su brūkšneliu, jei norite nutolinti; arba žalių rodyklių gretimoms žemėlapius.


METAR-TAF: